sensor_id;sensor_type;location;lat;lon;timestamp;P1;durP1;ratioP1;P2;durP2;ratioP2
15155;SDS011;7678;50.058;8.306;2023-05-20T00:00:18;3.10;;;2.10;;
15155;SDS011;7678;50.058;8.306;2023-05-20T00:02:46;3.40;;;2.43;;
15155;SDS011;7678;50.058;8.306;2023-05-20T00:05:14;5.10;;;2.33;;
15155;SDS011;7678;50.058;8.306;2023-05-20T00:07:43;3.30;;;2.20;;
15155;SDS011;7678;50.058;8.306;2023-05-20T00:10:11;2.57;;;2.10;;
15155;SDS011;7678;50.058;8.306;2023-05-20T00:12:40;8.73;;;2.70;;
15155;SDS011;7678;50.058;8.306;2023-05-20T00:15:09;4.37;;;2.50;;
15155;SDS011;7678;50.058;8.306;2023-05-20T00:17:38;2.70;;;2.33;;
15155;SDS011;7678;50.058;8.306;2023-05-20T00:20:06;4.60;;;2.20;;
15155;SDS011;7678;50.058;8.306;2023-05-20T00:22:35;2.97;;;2.33;;
15155;SDS011;7678;50.058;8.306;2023-05-20T00:25:03;4.97;;;2.47;;
15155;SDS011;7678;50.058;8.306;2023-05-20T00:27:31;3.53;;;2.50;;
15155;SDS011;7678;50.058;8.306;2023-05-20T00:29:59;3.80;;;2.50;;
15155;SDS011;7678;50.058;8.306;2023-05-20T00:32:31;9.27;;;2.37;;
15155;SDS011;7678;50.058;8.306;2023-05-20T00:34:59;3.47;;;2.57;;
15155;SDS011;7678;50.058;8.306;2023-05-20T00:37:28;2.67;;;2.47;;
15155;SDS011;7678;50.058;8.306;2023-05-20T00:39:56;2.87;;;2.43;;
15155;SDS011;7678;50.058;8.306;2023-05-20T00:42:26;3.93;;;2.30;;
15155;SDS011;7678;50.058;8.306;2023-05-20T00:44:55;4.20;;;2.40;;
15155;SDS011;7678;50.058;8.306;2023-05-20T00:47:24;4.13;;;2.47;;
15155;SDS011;7678;50.058;8.306;2023-05-20T00:49:56;3.17;;;2.30;;
15155;SDS011;7678;50.058;8.306;2023-05-20T00:52:25;4.00;;;2.77;;
15155;SDS011;7678;50.058;8.306;2023-05-20T00:54:56;3.93;;;2.80;;
15155;SDS011;7678;50.058;8.306;2023-05-20T00:57:24;4.60;;;2.37;;
15155;SDS011;7678;50.058;8.306;2023-05-20T00:59:52;3.07;;;2.40;;
15155;SDS011;7678;50.058;8.306;2023-05-20T01:02:21;3.90;;;2.30;;
15155;SDS011;7678;50.058;8.306;2023-05-20T01:04:50;4.03;;;2.90;;
15155;SDS011;7678;50.058;8.306;2023-05-20T01:07:21;3.07;;;2.40;;
15155;SDS011;7678;50.058;8.306;2023-05-20T01:09:52;3.27;;;2.20;;
15155;SDS011;7678;50.058;8.306;2023-05-20T01:12:22;3.87;;;2.73;;
15155;SDS011;7678;50.058;8.306;2023-05-20T01:14:55;6.30;;;2.77;;
15155;SDS011;7678;50.058;8.306;2023-05-20T01:17:26;7.17;;;2.60;;
15155;SDS011;7678;50.058;8.306;2023-05-20T01:20:03;4.30;;;2.30;;
15155;SDS011;7678;50.058;8.306;2023-05-20T01:22:37;7.50;;;2.33;;
15155;SDS011;7678;50.058;8.306;2023-05-20T01:25:05;5.73;;;2.80;;
15155;SDS011;7678;50.058;8.306;2023-05-20T01:27:36;6.43;;;2.53;;
15155;SDS011;7678;50.058;8.306;2023-05-20T01:30:04;2.90;;;2.30;;
15155;SDS011;7678;50.058;8.306;2023-05-20T01:32:35;3.90;;;2.37;;
15155;SDS011;7678;50.058;8.306;2023-05-20T01:35:06;4.77;;;2.77;;
15155;SDS011;7678;50.058;8.306;2023-05-20T01:37:43;4.53;;;2.50;;
15155;SDS011;7678;50.058;8.306;2023-05-20T01:43:12;3.47;;;2.57;;
15155;SDS011;7678;50.058;8.306;2023-05-20T01:45:43;3.33;;;2.50;;
15155;SDS011;7678;50.058;8.306;2023-05-20T01:48:11;3.13;;;2.07;;
15155;SDS011;7678;50.058;8.306;2023-05-20T01:50:39;2.77;;;2.47;;
15155;SDS011;7678;50.058;8.306;2023-05-20T01:53:10;2.90;;;2.30;;
15155;SDS011;7678;50.058;8.306;2023-05-20T01:55:38;5.63;;;2.70;;
15155;SDS011;7678;50.058;8.306;2023-05-20T01:58:06;5.87;;;2.83;;
15155;SDS011;7678;50.058;8.306;2023-05-20T02:00:36;3.17;;;2.57;;
15155;SDS011;7678;50.058;8.306;2023-05-20T02:03:04;3.30;;;2.50;;
15155;SDS011;7678;50.058;8.306;2023-05-20T02:05:33;4.87;;;2.70;;
15155;SDS011;7678;50.058;8.306;2023-05-20T02:08:19;4.80;;;2.33;;
15155;SDS011;7678;50.058;8.306;2023-05-20T02:10:47;5.17;;;2.37;;
15155;SDS011;7678;50.058;8.306;2023-05-20T02:13:15;3.50;;;2.20;;
15155;SDS011;7678;50.058;8.306;2023-05-20T02:15:48;8.07;;;2.33;;
15155;SDS011;7678;50.058;8.306;2023-05-20T02:18:17;3.60;;;2.70;;
15155;SDS011;7678;50.058;8.306;2023-05-20T02:20:45;4.30;;;2.43;;
15155;SDS011;7678;50.058;8.306;2023-05-20T02:23:15;4.07;;;2.60;;
15155;SDS011;7678;50.058;8.306;2023-05-20T02:25:45;5.33;;;2.93;;
15155;SDS011;7678;50.058;8.306;2023-05-20T02:28:13;5.97;;;2.50;;
15155;SDS011;7678;50.058;8.306;2023-05-20T02:30:41;3.37;;;2.40;;
15155;SDS011;7678;50.058;8.306;2023-05-20T02:33:11;3.00;;;2.33;;
15155;SDS011;7678;50.058;8.306;2023-05-20T02:35:40;4.27;;;2.37;;
15155;SDS011;7678;50.058;8.306;2023-05-20T02:38:08;3.63;;;2.50;;
15155;SDS011;7678;50.058;8.306;2023-05-20T02:46:13;3.43;;;2.70;;
15155;SDS011;7678;50.058;8.306;2023-05-20T02:48:43;2.60;;;2.40;;
15155;SDS011;7678;50.058;8.306;2023-05-20T02:51:12;2.80;;;2.43;;
15155;SDS011;7678;50.058;8.306;2023-05-20T02:53:42;5.07;;;2.70;;
15155;SDS011;7678;50.058;8.306;2023-05-20T02:56:10;3.20;;;2.30;;
15155;SDS011;7678;50.058;8.306;2023-05-20T02:58:38;4.93;;;2.40;;
15155;SDS011;7678;50.058;8.306;2023-05-20T03:01:06;3.33;;;2.60;;
15155;SDS011;7678;50.058;8.306;2023-05-20T03:03:36;2.67;;;2.27;;
15155;SDS011;7678;50.058;8.306;2023-05-20T03:06:06;3.00;;;2.70;;
15155;SDS011;7678;50.058;8.306;2023-05-20T03:08:34;3.57;;;2.87;;
15155;SDS011;7678;50.058;8.306;2023-05-20T03:11:02;5.00;;;2.70;;
15155;SDS011;7678;50.058;8.306;2023-05-20T03:13:31;4.03;;;2.70;;
15155;SDS011;7678;50.058;8.306;2023-05-20T03:16:00;5.07;;;2.90;;
15155;SDS011;7678;50.058;8.306;2023-05-20T03:18:28;3.87;;;2.67;;
15155;SDS011;7678;50.058;8.306;2023-05-20T03:20:57;3.67;;;2.77;;
15155;SDS011;7678;50.058;8.306;2023-05-20T03:23:25;3.20;;;2.90;;
15155;SDS011;7678;50.058;8.306;2023-05-20T03:25:53;4.83;;;2.80;;
15155;SDS011;7678;50.058;8.306;2023-05-20T03:28:21;2.70;;;2.50;;
15155;SDS011;7678;50.058;8.306;2023-05-20T03:30:49;4.03;;;3.13;;
15155;SDS011;7678;50.058;8.306;2023-05-20T03:33:23;2.90;;;2.60;;
15155;SDS011;7678;50.058;8.306;2023-05-20T03:35:52;4.27;;;2.87;;
15155;SDS011;7678;50.058;8.306;2023-05-20T03:38:21;5.33;;;2.90;;
15155;SDS011;7678;50.058;8.306;2023-05-20T03:40:57;3.67;;;2.50;;
15155;SDS011;7678;50.058;8.306;2023-05-20T03:43:25;4.17;;;3.03;;
15155;SDS011;7678;50.058;8.306;2023-05-20T03:45:54;4.87;;;3.00;;
15155;SDS011;7678;50.058;8.306;2023-05-20T03:48:22;5.20;;;2.93;;
15155;SDS011;7678;50.058;8.306;2023-05-20T03:50:50;5.13;;;3.00;;
15155;SDS011;7678;50.058;8.306;2023-05-20T03:53:18;4.37;;;2.70;;
15155;SDS011;7678;50.058;8.306;2023-05-20T03:55:53;6.60;;;2.60;;
15155;SDS011;7678;50.058;8.306;2023-05-20T03:58:21;3.97;;;3.10;;
15155;SDS011;7678;50.058;8.306;2023-05-20T04:00:50;4.50;;;3.07;;
15155;SDS011;7678;50.058;8.306;2023-05-20T04:03:18;5.33;;;2.87;;
15155;SDS011;7678;50.058;8.306;2023-05-20T04:05:56;4.00;;;2.80;;
15155;SDS011;7678;50.058;8.306;2023-05-20T04:08:24;5.73;;;3.20;;
15155;SDS011;7678;50.058;8.306;2023-05-20T04:10:55;4.43;;;3.17;;
15155;SDS011;7678;50.058;8.306;2023-05-20T04:13:24;3.20;;;2.73;;
15155;SDS011;7678;50.058;8.306;2023-05-20T04:15:52;4.40;;;3.40;;
15155;SDS011;7678;50.058;8.306;2023-05-20T04:18:20;5.57;;;3.30;;
15155;SDS011;7678;50.058;8.306;2023-05-20T04:20:48;5.33;;;3.40;;
15155;SDS011;7678;50.058;8.306;2023-05-20T04:23:21;3.50;;;3.20;;
15155;SDS011;7678;50.058;8.306;2023-05-20T04:25:49;5.53;;;3.47;;
15155;SDS011;7678;50.058;8.306;2023-05-20T04:28:19;4.50;;;3.00;;
15155;SDS011;7678;50.058;8.306;2023-05-20T04:30:56;4.30;;;2.93;;
15155;SDS011;7678;50.058;8.306;2023-05-20T04:33:25;4.47;;;2.83;;
15155;SDS011;7678;50.058;8.306;2023-05-20T04:35:53;5.03;;;3.33;;
15155;SDS011;7678;50.058;8.306;2023-05-20T04:38:24;5.77;;;2.90;;
15155;SDS011;7678;50.058;8.306;2023-05-20T04:40:55;5.17;;;2.83;;
15155;SDS011;7678;50.058;8.306;2023-05-20T04:43:25;4.57;;;3.53;;
15155;SDS011;7678;50.058;8.306;2023-05-20T04:45:55;5.33;;;3.30;;
15155;SDS011;7678;50.058;8.306;2023-05-20T04:48:24;5.57;;;3.40;;
15155;SDS011;7678;50.058;8.306;2023-05-20T04:50:53;3.73;;;2.90;;
15155;SDS011;7678;50.058;8.306;2023-05-20T04:53:27;4.83;;;3.70;;
15155;SDS011;7678;50.058;8.306;2023-05-20T04:55:55;4.93;;;3.00;;
15155;SDS011;7678;50.058;8.306;2023-05-20T04:58:25;4.63;;;3.07;;
15155;SDS011;7678;50.058;8.306;2023-05-20T05:00:55;4.80;;;3.53;;
15155;SDS011;7678;50.058;8.306;2023-05-20T05:03:23;4.27;;;3.33;;
15155;SDS011;7678;50.058;8.306;2023-05-20T05:05:54;4.70;;;2.97;;
15155;SDS011;7678;50.058;8.306;2023-05-20T05:08:22;3.03;;;2.73;;
15155;SDS011;7678;50.058;8.306;2023-05-20T05:10:50;3.67;;;3.30;;
15155;SDS011;7678;50.058;8.306;2023-05-20T05:13:20;4.13;;;3.23;;
15155;SDS011;7678;50.058;8.306;2023-05-20T05:15:49;5.57;;;3.57;;
15155;SDS011;7678;50.058;8.306;2023-05-20T05:18:25;5.73;;;3.27;;
15155;SDS011;7678;50.058;8.306;2023-05-20T05:20:57;4.60;;;3.47;;
15155;SDS011;7678;50.058;8.306;2023-05-20T05:23:26;5.37;;;3.80;;
15155;SDS011;7678;50.058;8.306;2023-05-20T05:25:54;4.20;;;3.13;;
15155;SDS011;7678;50.058;8.306;2023-05-20T05:28:23;3.50;;;3.20;;
15155;SDS011;7678;50.058;8.306;2023-05-20T05:30:54;4.17;;;3.40;;
15155;SDS011;7678;50.058;8.306;2023-05-20T05:33:22;5.33;;;3.90;;
15155;SDS011;7678;50.058;8.306;2023-05-20T05:35:50;4.17;;;3.43;;
15155;SDS011;7678;50.058;8.306;2023-05-20T05:38:18;4.57;;;3.43;;
15155;SDS011;7678;50.058;8.306;2023-05-20T05:40:46;4.83;;;3.90;;
15155;SDS011;7678;50.058;8.306;2023-05-20T05:43:14;4.93;;;3.80;;
15155;SDS011;7678;50.058;8.306;2023-05-20T05:45:42;4.60;;;3.67;;
15155;SDS011;7678;50.058;8.306;2023-05-20T05:48:12;4.37;;;3.30;;
15155;SDS011;7678;50.058;8.306;2023-05-20T05:50:42;10.10;;;3.97;;
15155;SDS011;7678;50.058;8.306;2023-05-20T05:53:11;3.90;;;3.50;;
15155;SDS011;7678;50.058;8.306;2023-05-20T05:55:39;7.27;;;3.63;;
15155;SDS011;7678;50.058;8.306;2023-05-20T05:58:07;6.37;;;3.50;;
15155;SDS011;7678;50.058;8.306;2023-05-20T06:00:35;4.70;;;3.50;;
15155;SDS011;7678;50.058;8.306;2023-05-20T06:03:03;4.17;;;3.33;;
15155;SDS011;7678;50.058;8.306;2023-05-20T06:05:32;5.27;;;3.30;;
15155;SDS011;7678;50.058;8.306;2023-05-20T06:08:00;5.10;;;3.57;;
15155;SDS011;7678;50.058;8.306;2023-05-20T06:10:28;5.13;;;3.83;;
15155;SDS011;7678;50.058;8.306;2023-05-20T06:12:56;4.03;;;3.30;;
15155;SDS011;7678;50.058;8.306;2023-05-20T06:15:24;7.50;;;3.80;;
15155;SDS011;7678;50.058;8.306;2023-05-20T06:17:53;4.83;;;3.60;;
15155;SDS011;7678;50.058;8.306;2023-05-20T06:20:21;4.17;;;3.70;;
15155;SDS011;7678;50.058;8.306;2023-05-20T06:22:50;5.50;;;3.73;;
15155;SDS011;7678;50.058;8.306;2023-05-20T06:25:18;4.33;;;3.87;;
15155;SDS011;7678;50.058;8.306;2023-05-20T06:27:48;5.90;;;4.30;;
15155;SDS011;7678;50.058;8.306;2023-05-20T06:30:16;7.27;;;4.03;;
15155;SDS011;7678;50.058;8.306;2023-05-20T06:32:44;5.30;;;3.97;;
15155;SDS011;7678;50.058;8.306;2023-05-20T06:35:12;5.47;;;4.30;;
15155;SDS011;7678;50.058;8.306;2023-05-20T06:37:40;4.97;;;3.70;;
15155;SDS011;7678;50.058;8.306;2023-05-20T06:40:10;4.13;;;3.67;;
15155;SDS011;7678;50.058;8.306;2023-05-20T06:42:39;4.17;;;3.77;;
15155;SDS011;7678;50.058;8.306;2023-05-20T06:45:07;5.67;;;4.90;;
15155;SDS011;7678;50.058;8.306;2023-05-20T06:47:35;5.03;;;4.53;;
15155;SDS011;7678;50.058;8.306;2023-05-20T06:50:04;5.67;;;4.27;;
15155;SDS011;7678;50.058;8.306;2023-05-20T06:52:33;6.43;;;5.10;;
15155;SDS011;7678;50.058;8.306;2023-05-20T06:55:01;5.17;;;4.47;;
15155;SDS011;7678;50.058;8.306;2023-05-20T06:57:31;5.33;;;4.60;;
15155;SDS011;7678;50.058;8.306;2023-05-20T06:59:59;5.87;;;5.13;;
15155;SDS011;7678;50.058;8.306;2023-05-20T07:02:27;6.63;;;5.33;;
15155;SDS011;7678;50.058;8.306;2023-05-20T07:04:55;5.47;;;4.83;;
15155;SDS011;7678;50.058;8.306;2023-05-20T07:07:23;6.20;;;4.17;;
15155;SDS011;7678;50.058;8.306;2023-05-20T07:09:51;9.00;;;4.90;;
15155;SDS011;7678;50.058;8.306;2023-05-20T07:12:21;7.90;;;4.33;;
15155;SDS011;7678;50.058;8.306;2023-05-20T07:14:50;6.90;;;4.43;;
15155;SDS011;7678;50.058;8.306;2023-05-20T07:17:18;7.50;;;5.23;;
15155;SDS011;7678;50.058;8.306;2023-05-20T07:19:46;7.33;;;4.60;;
15155;SDS011;7678;50.058;8.306;2023-05-20T07:22:14;7.03;;;4.83;;
15155;SDS011;7678;50.058;8.306;2023-05-20T07:24:44;5.30;;;4.73;;
15155;SDS011;7678;50.058;8.306;2023-05-20T07:27:15;7.20;;;4.40;;
15155;SDS011;7678;50.058;8.306;2023-05-20T07:29:43;6.27;;;4.50;;
15155;SDS011;7678;50.058;8.306;2023-05-20T07:32:13;5.47;;;4.70;;
15155;SDS011;7678;50.058;8.306;2023-05-20T07:34:42;6.83;;;5.17;;
15155;SDS011;7678;50.058;8.306;2023-05-20T07:37:10;4.90;;;4.40;;
15155;SDS011;7678;50.058;8.306;2023-05-20T07:39:39;5.40;;;4.57;;
15155;SDS011;7678;50.058;8.306;2023-05-20T07:42:09;5.07;;;4.57;;
15155;SDS011;7678;50.058;8.306;2023-05-20T07:44:37;7.67;;;5.50;;
15155;SDS011;7678;50.058;8.306;2023-05-20T07:47:05;5.03;;;4.53;;
15155;SDS011;7678;50.058;8.306;2023-05-20T07:49:35;7.37;;;4.90;;
15155;SDS011;7678;50.058;8.306;2023-05-20T07:52:03;9.53;;;4.83;;
15155;SDS011;7678;50.058;8.306;2023-05-20T07:54:33;5.70;;;4.90;;
15155;SDS011;7678;50.058;8.306;2023-05-20T07:57:01;6.30;;;5.13;;
15155;SDS011;7678;50.058;8.306;2023-05-20T07:59:30;6.97;;;5.13;;
15155;SDS011;7678;50.058;8.306;2023-05-20T08:01:58;6.60;;;5.17;;
15155;SDS011;7678;50.058;8.306;2023-05-20T08:04:26;6.80;;;5.37;;
15155;SDS011;7678;50.058;8.306;2023-05-20T08:06:56;5.07;;;4.53;;
15155;SDS011;7678;50.058;8.306;2023-05-20T08:09:29;5.87;;;4.83;;
15155;SDS011;7678;50.058;8.306;2023-05-20T08:11:58;6.10;;;5.37;;
15155;SDS011;7678;50.058;8.306;2023-05-20T08:14:26;9.27;;;5.20;;
15155;SDS011;7678;50.058;8.306;2023-05-20T08:16:54;5.30;;;4.80;;
15155;SDS011;7678;50.058;8.306;2023-05-20T08:19:23;6.93;;;5.10;;
15155;SDS011;7678;50.058;8.306;2023-05-20T08:21:51;7.63;;;5.00;;
15155;SDS011;7678;50.058;8.306;2023-05-20T08:24:21;5.83;;;4.73;;
15155;SDS011;7678;50.058;8.306;2023-05-20T08:26:49;7.07;;;5.33;;
15155;SDS011;7678;50.058;8.306;2023-05-20T08:29:17;7.10;;;4.67;;
15155;SDS011;7678;50.058;8.306;2023-05-20T08:31:45;5.73;;;4.77;;
15155;SDS011;7678;50.058;8.306;2023-05-20T08:34:14;6.03;;;5.20;;
15155;SDS011;7678;50.058;8.306;2023-05-20T08:36:45;5.93;;;4.90;;
15155;SDS011;7678;50.058;8.306;2023-05-20T08:39:13;5.53;;;5.00;;
15155;SDS011;7678;50.058;8.306;2023-05-20T08:41:44;5.77;;;5.07;;
15155;SDS011;7678;50.058;8.306;2023-05-20T08:44:13;6.87;;;5.90;;
15155;SDS011;7678;50.058;8.306;2023-05-20T08:46:43;6.37;;;5.43;;
15155;SDS011;7678;50.058;8.306;2023-05-20T08:49:12;8.00;;;5.33;;
15155;SDS011;7678;50.058;8.306;2023-05-20T08:51:40;5.47;;;4.93;;
15155;SDS011;7678;50.058;8.306;2023-05-20T08:54:09;7.23;;;5.80;;
15155;SDS011;7678;50.058;8.306;2023-05-20T08:56:39;7.47;;;5.30;;
15155;SDS011;7678;50.058;8.306;2023-05-20T08:59:09;7.10;;;5.83;;
15155;SDS011;7678;50.058;8.306;2023-05-20T09:01:40;8.97;;;5.67;;
15155;SDS011;7678;50.058;8.306;2023-05-20T09:04:09;8.17;;;6.20;;
15155;SDS011;7678;50.058;8.306;2023-05-20T09:06:43;6.23;;;5.20;;
15155;SDS011;7678;50.058;8.306;2023-05-20T09:09:12;6.93;;;5.37;;
15155;SDS011;7678;50.058;8.306;2023-05-20T09:11:41;7.13;;;5.70;;
15155;SDS011;7678;50.058;8.306;2023-05-20T09:14:10;7.33;;;6.03;;
15155;SDS011;7678;50.058;8.306;2023-05-20T09:16:39;7.60;;;5.37;;
15155;SDS011;7678;50.058;8.306;2023-05-20T09:19:07;6.90;;;5.53;;
15155;SDS011;7678;50.058;8.306;2023-05-20T09:21:36;6.47;;;5.77;;
15155;SDS011;7678;50.058;8.306;2023-05-20T09:24:07;7.43;;;6.17;;
15155;SDS011;7678;50.058;8.306;2023-05-20T09:26:35;6.50;;;5.90;;
15155;SDS011;7678;50.058;8.306;2023-05-20T09:29:04;6.73;;;6.13;;
15155;SDS011;7678;50.058;8.306;2023-05-20T09:31:35;7.40;;;5.73;;
15155;SDS011;7678;50.058;8.306;2023-05-20T09:34:04;7.63;;;5.80;;
15155;SDS011;7678;50.058;8.306;2023-05-20T09:36:34;6.23;;;5.63;;
15155;SDS011;7678;50.058;8.306;2023-05-20T09:39:02;6.50;;;5.70;;
15155;SDS011;7678;50.058;8.306;2023-05-20T09:41:32;6.07;;;5.30;;
15155;SDS011;7678;50.058;8.306;2023-05-20T09:44:04;6.97;;;6.00;;
15155;SDS011;7678;50.058;8.306;2023-05-20T09:46:34;8.60;;;5.93;;
15155;SDS011;7678;50.058;8.306;2023-05-20T09:49:03;6.57;;;5.80;;
15155;SDS011;7678;50.058;8.306;2023-05-20T09:51:33;9.17;;;6.10;;
15155;SDS011;7678;50.058;8.306;2023-05-20T09:54:01;9.43;;;6.20;;
15155;SDS011;7678;50.058;8.306;2023-05-20T09:56:32;6.43;;;5.83;;
15155;SDS011;7678;50.058;8.306;2023-05-20T09:59:01;7.27;;;5.90;;
15155;SDS011;7678;50.058;8.306;2023-05-20T10:01:32;6.33;;;5.73;;
15155;SDS011;7678;50.058;8.306;2023-05-20T10:04:01;6.40;;;5.80;;
15155;SDS011;7678;50.058;8.306;2023-05-20T10:06:36;6.83;;;6.13;;
15155;SDS011;7678;50.058;8.306;2023-05-20T10:09:17;6.33;;;5.73;;
15155;SDS011;7678;50.058;8.306;2023-05-20T10:11:57;8.60;;;6.33;;
15155;SDS011;7678;50.058;8.306;2023-05-20T10:14:38;8.27;;;6.17;;
15155;SDS011;7678;50.058;8.306;2023-05-20T10:17:15;7.60;;;6.50;;
15155;SDS011;7678;50.058;8.306;2023-05-20T10:19:49;7.00;;;6.03;;
15155;SDS011;7678;50.058;8.306;2023-05-20T10:22:25;7.97;;;6.53;;
15155;SDS011;7678;50.058;8.306;2023-05-20T10:24:57;6.20;;;5.63;;
15155;SDS011;7678;50.058;8.306;2023-05-20T10:27:26;5.90;;;5.30;;
15155;SDS011;7678;50.058;8.306;2023-05-20T10:29:54;9.10;;;6.07;;
15155;SDS011;7678;50.058;8.306;2023-05-20T10:32:24;6.97;;;6.17;;
15155;SDS011;7678;50.058;8.306;2023-05-20T10:34:57;7.57;;;6.17;;
15155;SDS011;7678;50.058;8.306;2023-05-20T10:37:27;6.93;;;5.80;;
15155;SDS011;7678;50.058;8.306;2023-05-20T10:40:06;7.70;;;5.87;;
15155;SDS011;7678;50.058;8.306;2023-05-20T10:42:36;8.40;;;5.30;;
15155;SDS011;7678;50.058;8.306;2023-05-20T10:45:05;9.30;;;6.57;;
15155;SDS011;7678;50.058;8.306;2023-05-20T10:47:34;6.53;;;5.93;;
15155;SDS011;7678;50.058;8.306;2023-05-20T10:50:04;7.90;;;5.97;;
15155;SDS011;7678;50.058;8.306;2023-05-20T10:52:35;7.83;;;5.70;;
15155;SDS011;7678;50.058;8.306;2023-05-20T10:55:17;7.07;;;5.80;;
15155;SDS011;7678;50.058;8.306;2023-05-20T10:57:45;6.27;;;5.67;;
15155;SDS011;7678;50.058;8.306;2023-05-20T11:00:14;7.60;;;5.90;;
15155;SDS011;7678;50.058;8.306;2023-05-20T11:02:43;8.77;;;6.57;;
15155;SDS011;7678;50.058;8.306;2023-05-20T11:05:13;6.73;;;5.57;;
15155;SDS011;7678;50.058;8.306;2023-05-20T11:07:44;6.27;;;5.50;;
15155;SDS011;7678;50.058;8.306;2023-05-20T11:10:11;6.53;;;5.70;;
15155;SDS011;7678;50.058;8.306;2023-05-20T11:12:40;7.77;;;6.40;;
15155;SDS011;7678;50.058;8.306;2023-05-20T11:15:10;9.77;;;6.63;;
15155;SDS011;7678;50.058;8.306;2023-05-20T11:17:43;7.80;;;6.00;;
15155;SDS011;7678;50.058;8.306;2023-05-20T11:20:20;6.20;;;5.07;;
15155;SDS011;7678;50.058;8.306;2023-05-20T11:22:48;6.40;;;5.33;;
15155;SDS011;7678;50.058;8.306;2023-05-20T11:25:17;7.03;;;5.70;;
15155;SDS011;7678;50.058;8.306;2023-05-20T11:27:45;9.93;;;5.80;;
15155;SDS011;7678;50.058;8.306;2023-05-20T11:30:14;6.23;;;5.67;;
15155;SDS011;7678;50.058;8.306;2023-05-20T11:32:43;6.17;;;5.57;;
15155;SDS011;7678;50.058;8.306;2023-05-20T11:35:24;6.07;;;5.43;;
15155;SDS011;7678;50.058;8.306;2023-05-20T11:37:54;7.33;;;5.67;;
15155;SDS011;7678;50.058;8.306;2023-05-20T11:40:25;6.30;;;5.40;;
15155;SDS011;7678;50.058;8.306;2023-05-20T11:43:04;9.13;;;5.10;;
15155;SDS011;7678;50.058;8.306;2023-05-20T11:45:37;7.53;;;5.70;;
15155;SDS011;7678;50.058;8.306;2023-05-20T11:48:07;6.67;;;5.47;;
15155;SDS011;7678;50.058;8.306;2023-05-20T11:50:39;6.50;;;5.07;;
15155;SDS011;7678;50.058;8.306;2023-05-20T11:53:08;6.30;;;5.10;;
15155;SDS011;7678;50.058;8.306;2023-05-20T11:55:43;9.63;;;5.53;;
15155;SDS011;7678;50.058;8.306;2023-05-20T11:58:14;6.67;;;5.70;;
15155;SDS011;7678;50.058;8.306;2023-05-20T12:00:43;6.13;;;5.53;;
15155;SDS011;7678;50.058;8.306;2023-05-20T12:03:20;6.80;;;4.97;;
15155;SDS011;7678;50.058;8.306;2023-05-20T12:05:49;5.00;;;4.60;;
15155;SDS011;7678;50.058;8.306;2023-05-20T12:08:18;7.90;;;4.77;;
15155;SDS011;7678;50.058;8.306;2023-05-20T12:10:48;5.97;;;5.30;;
15155;SDS011;7678;50.058;8.306;2023-05-20T12:13:16;5.27;;;4.77;;
15155;SDS011;7678;50.058;8.306;2023-05-20T12:15:44;5.60;;;5.03;;
15155;SDS011;7678;50.058;8.306;2023-05-20T12:18:13;7.27;;;4.80;;
15155;SDS011;7678;50.058;8.306;2023-05-20T12:20:41;10.03;;;4.83;;
15155;SDS011;7678;50.058;8.306;2023-05-20T12:23:10;5.83;;;5.20;;
15155;SDS011;7678;50.058;8.306;2023-05-20T12:25:38;7.10;;;5.10;;
15155;SDS011;7678;50.058;8.306;2023-05-20T12:28:06;6.07;;;5.27;;
15155;SDS011;7678;50.058;8.306;2023-05-20T12:30:35;10.43;;;5.03;;
15155;SDS011;7678;50.058;8.306;2023-05-20T12:33:03;6.53;;;4.50;;
15155;SDS011;7678;50.058;8.306;2023-05-20T12:35:35;6.50;;;5.10;;
15155;SDS011;7678;50.058;8.306;2023-05-20T12:38:04;6.83;;;4.60;;
15155;SDS011;7678;50.058;8.306;2023-05-20T12:40:34;5.60;;;4.87;;
15155;SDS011;7678;50.058;8.306;2023-05-20T12:43:04;6.60;;;5.10;;
15155;SDS011;7678;50.058;8.306;2023-05-20T12:45:32;5.63;;;5.03;;
15155;SDS011;7678;50.058;8.306;2023-05-20T12:48:00;6.70;;;5.60;;
15155;SDS011;7678;50.058;8.306;2023-05-20T12:50:28;6.93;;;5.67;;
15155;SDS011;7678;50.058;8.306;2023-05-20T12:52:56;9.17;;;6.17;;
15155;SDS011;7678;50.058;8.306;2023-05-20T12:55:25;5.90;;;5.40;;
15155;SDS011;7678;50.058;8.306;2023-05-20T12:57:54;6.70;;;5.43;;
15155;SDS011;7678;50.058;8.306;2023-05-20T13:00:22;8.87;;;5.57;;
15155;SDS011;7678;50.058;8.306;2023-05-20T13:02:50;6.60;;;5.90;;
15155;SDS011;7678;50.058;8.306;2023-05-20T13:05:20;6.13;;;5.50;;
15155;SDS011;7678;50.058;8.306;2023-05-20T13:07:49;6.40;;;5.80;;
15155;SDS011;7678;50.058;8.306;2023-05-20T13:10:19;6.90;;;5.60;;
15155;SDS011;7678;50.058;8.306;2023-05-20T13:12:47;5.97;;;5.10;;
15155;SDS011;7678;50.058;8.306;2023-05-20T13:15:17;5.20;;;4.70;;
15155;SDS011;7678;50.058;8.306;2023-05-20T13:17:45;7.83;;;5.17;;
15155;SDS011;7678;50.058;8.306;2023-05-20T13:20:13;5.73;;;5.13;;
15155;SDS011;7678;50.058;8.306;2023-05-20T13:22:45;5.70;;;5.27;;
15155;SDS011;7678;50.058;8.306;2023-05-20T13:25:13;9.93;;;5.73;;
15155;SDS011;7678;50.058;8.306;2023-05-20T13:27:41;8.07;;;4.90;;
15155;SDS011;7678;50.058;8.306;2023-05-20T13:30:09;5.73;;;5.17;;
15155;SDS011;7678;50.058;8.306;2023-05-20T13:32:39;6.17;;;5.47;;
15155;SDS011;7678;50.058;8.306;2023-05-20T13:35:07;13.83;;;6.00;;
15155;SDS011;7678;50.058;8.306;2023-05-20T13:37:35;5.37;;;4.80;;
15155;SDS011;7678;50.058;8.306;2023-05-20T13:40:04;8.60;;;5.87;;
15155;SDS011;7678;50.058;8.306;2023-05-20T13:42:32;6.40;;;5.80;;
15155;SDS011;7678;50.058;8.306;2023-05-20T13:45:01;7.53;;;5.00;;
15155;SDS011;7678;50.058;8.306;2023-05-20T13:47:29;7.17;;;5.20;;
15155;SDS011;7678;50.058;8.306;2023-05-20T13:49:58;8.73;;;5.67;;
15155;SDS011;7678;50.058;8.306;2023-05-20T13:52:28;6.30;;;5.70;;
15155;SDS011;7678;50.058;8.306;2023-05-20T13:54:56;8.83;;;5.67;;
15155;SDS011;7678;50.058;8.306;2023-05-20T13:57:24;6.40;;;5.73;;
15155;SDS011;7678;50.058;8.306;2023-05-20T13:59:53;6.20;;;5.60;;
15155;SDS011;7678;50.058;8.306;2023-05-20T14:02:21;5.77;;;5.27;;
15155;SDS011;7678;50.058;8.306;2023-05-20T14:04:49;6.57;;;5.50;;
15155;SDS011;7678;50.058;8.306;2023-05-20T14:07:18;6.17;;;5.63;;
15155;SDS011;7678;50.058;8.306;2023-05-20T14:09:47;6.07;;;5.40;;
15155;SDS011;7678;50.058;8.306;2023-05-20T14:12:14;6.13;;;5.47;;
15155;SDS011;7678;50.058;8.306;2023-05-20T14:14:42;5.80;;;5.30;;
15155;SDS011;7678;50.058;8.306;2023-05-20T14:17:11;7.23;;;5.87;;
15155;SDS011;7678;50.058;8.306;2023-05-20T14:19:38;6.07;;;5.47;;
15155;SDS011;7678;50.058;8.306;2023-05-20T14:22:07;6.37;;;5.87;;
15155;SDS011;7678;50.058;8.306;2023-05-20T14:24:36;6.87;;;5.43;;
15155;SDS011;7678;50.058;8.306;2023-05-20T14:27:04;6.60;;;6.00;;
15155;SDS011;7678;50.058;8.306;2023-05-20T14:29:32;5.67;;;5.17;;
15155;SDS011;7678;50.058;8.306;2023-05-20T14:32:00;6.40;;;5.80;;
15155;SDS011;7678;50.058;8.306;2023-05-20T14:34:30;7.57;;;6.40;;
15155;SDS011;7678;50.058;8.306;2023-05-20T14:36:58;6.07;;;5.57;;
15155;SDS011;7678;50.058;8.306;2023-05-20T14:39:30;6.20;;;5.60;;
15155;SDS011;7678;50.058;8.306;2023-05-20T14:42:00;6.70;;;6.03;;
15155;SDS011;7678;50.058;8.306;2023-05-20T14:44:28;5.70;;;5.20;;
15155;SDS011;7678;50.058;8.306;2023-05-20T14:46:56;6.27;;;5.73;;
15155;SDS011;7678;50.058;8.306;2023-05-20T14:49:24;8.70;;;6.03;;
15155;SDS011;7678;50.058;8.306;2023-05-20T14:51:52;6.60;;;5.90;;
15155;SDS011;7678;50.058;8.306;2023-05-20T14:54:20;7.93;;;5.97;;
15155;SDS011;7678;50.058;8.306;2023-05-20T14:56:50;6.13;;;5.40;;
15155;SDS011;7678;50.058;8.306;2023-05-20T14:59:19;7.60;;;6.10;;
15155;SDS011;7678;50.058;8.306;2023-05-20T15:01:47;6.00;;;5.40;;
15155;SDS011;7678;50.058;8.306;2023-05-20T15:04:15;7.00;;;6.30;;
15155;SDS011;7678;50.058;8.306;2023-05-20T15:06:43;6.33;;;5.73;;
15155;SDS011;7678;50.058;8.306;2023-05-20T15:09:11;6.50;;;5.90;;
15155;SDS011;7678;50.058;8.306;2023-05-20T15:11:39;7.17;;;6.27;;
15155;SDS011;7678;50.058;8.306;2023-05-20T15:14:07;11.23;;;6.40;;
15155;SDS011;7678;50.058;8.306;2023-05-20T15:16:37;9.03;;;6.10;;
15155;SDS011;7678;50.058;8.306;2023-05-20T15:19:05;7.87;;;6.37;;
15155;SDS011;7678;50.058;8.306;2023-05-20T15:21:33;6.93;;;6.03;;